地図

経路データ

SID SEASON NUMBER BASIN SUBBASIN NAME ISO_TIME NATURE LAT LON WMO_WIND WMO_PRES WMO_AGENCY TRACK_TYPE DIST2LAND LANDFALL IFLAG USA_AGENCY USA_ATCF_ID USA_LAT USA_LON USA_RECORD USA_STATUS USA_WIND USA_PRES USA_SSHS USA_R34_NE USA_R34_SE USA_R34_SW USA_R34_NW USA_R50_NE USA_R50_SE USA_R50_SW USA_R50_NW USA_R64_NE USA_R64_SE USA_R64_SW USA_R64_NW USA_POCI USA_ROCI USA_RMW USA_EYE TOKYO_LAT TOKYO_LON TOKYO_GRADE TOKYO_WIND TOKYO_PRES TOKYO_R50_DIR TOKYO_R50_LONG TOKYO_R50_SHORT TOKYO_R30_DIR TOKYO_R30_LONG TOKYO_R30_SHORT TOKYO_LAND CMA_LAT CMA_LON CMA_CAT CMA_WIND CMA_PRES HKO_LAT HKO_LON HKO_CAT HKO_WIND HKO_PRES NEWDELHI_LAT NEWDELHI_LON NEWDELHI_GRADE NEWDELHI_WIND NEWDELHI_PRES NEWDELHI_CI NEWDELHI_DP NEWDELHI_POCI REUNION_LAT REUNION_LON REUNION_TYPE REUNION_WIND REUNION_PRES REUNION_TNUM REUNION_CI REUNION_RMW REUNION_R34_NE REUNION_R34_SE REUNION_R34_SW REUNION_R34_NW REUNION_R50_NE REUNION_R50_SE REUNION_R50_SW REUNION_R50_NW REUNION_R64_NE REUNION_R64_SE REUNION_R64_SW REUNION_R64_NW BOM_LAT BOM_LON BOM_TYPE BOM_WIND BOM_PRES BOM_TNUM BOM_CI BOM_RMW BOM_R34_NE BOM_R34_SE BOM_R34_SW BOM_R34_NW BOM_R50_NE BOM_R50_SE BOM_R50_SW BOM_R50_NW BOM_R64_NE BOM_R64_SE BOM_R64_SW BOM_R64_NW BOM_ROCI BOM_POCI BOM_EYE BOM_POS_METHOD BOM_PRES_METHOD NADI_LAT NADI_LON NADI_CAT NADI_WIND NADI_PRES WELLINGTON_LAT WELLINGTON_LON WELLINGTON_WIND WELLINGTON_PRES DS824_LAT DS824_LON DS824_STAGE DS824_WIND DS824_PRES TD9636_LAT TD9636_LON TD9636_STAGE TD9636_WIND TD9636_PRES TD9635_LAT TD9635_LON TD9635_WIND TD9635_PRES TD9635_ROCI NEUMANN_LAT NEUMANN_LON NEUMANN_CLASS NEUMANN_WIND NEUMANN_PRES MLC_LAT MLC_LON MLC_CLASS MLC_WIND MLC_PRES USA_GUST BOM_GUST BOM_GUST_PER REUNION_GUST REUNION_GUST_PER USA_SEAHGT USA_SEARAD_NE USA_SEARAD_SE USA_SEARAD_SW USA_SEARAD_NW STORM_SPEED STORM_DIR
1967201N26134 1967 52 WP MM NOT_NAMED 1967-07-20 00:00:00 TS 25.5000 134.400 main 712 656 __O___________ -1 25.5000 134.400 0 1001 17 285
1967201N26134 1967 52 WP MM NOT_NAMED 1967-07-20 03:00:00 TS 25.7148 133.514 main 651 588 __P___________ -1 25.7148 133.514 0 1001 18 286
1967201N26134 1967 52 WP MM NOT_NAMED 1967-07-20 06:00:00 TS 26.0000 132.500 main 585 518 __O___________ -1 26.0000 132.500 0 1002 21 289
1967201N26134 1967 52 WP MM NOT_NAMED 1967-07-20 09:00:00 TS 26.3938 131.306 main 516 470 __P___________ -1 26.3938 131.306 0 1002 22 291
1967201N26134 1967 52 WP MM NOT_NAMED 1967-07-20 12:00:00 TS 26.8000 130.200 main 471 450 __O___________ -1 26.8000 130.200 0 1002 18 293
1967201N26134 1967 52 WP MM NOT_NAMED 1967-07-20 15:00:00 TS 27.1137 129.444 main 453 434 __P___________ -1 27.1137 129.444 0 1002 13 297
1967201N26134 1967 52 WP MM NOT_NAMED 1967-07-20 18:00:00 TS 27.4000 128.900 main 438 427 __O___________ -1 27.4000 128.900 0 1002 11 301
1967201N26134 1967 52 WP MM NOT_NAMED 1967-07-20 21:00:00 TS 27.6923 128.375 main 427 415 __P___________ -1 27.6923 128.375 0 1002 10 307
1967201N26134 1967 52 WP MM NOT_NAMED 1967-07-21 00:00:00 TS 28.0000 128.000 main 415 397 __O___________ -1 28.0000 128.000 0 1003 8 321
1967201N26134 1967 52 WP MM NOT_NAMED 1967-07-21 03:00:00 TS 28.3348 127.782 main 397 368 __P___________ -1 28.3348 127.782 0 1003 8 339
1967201N26134 1967 52 WP MM NOT_NAMED 1967-07-21 06:00:00 TS 28.7000 127.700 main 368 335 __O___________ -1 28.7000 127.700 0 1003 8 353
1967201N26134 1967 52 WP MM NOT_NAMED 1967-07-21 09:00:00 TS 29.0850 127.685 main 335 305 __P___________ -1 29.0850 127.685 0 1003 8 1
1967201N26134 1967 52 WP MM NOT_NAMED 1967-07-21 12:00:00 TS 29.5000 127.700 main 305 279 __O___________ -1 29.5000 127.700 1 29 1003 9 359
1967201N26134 1967 52 WP MM NOT_NAMED 1967-07-21 15:00:00 TS 29.9650 127.658 main 273 263 __P___________ -1 29.9650 127.658 1 29 1003 9 355
1967201N26134 1967 52 WP MM NOT_NAMED 1967-07-21 18:00:00 TS 30.4000 127.600 main 263 253 __O___________ -1 30.4000 127.600 1 29 1003 8 357
1967201N26134 1967 52 WP MM NOT_NAMED 1967-07-21 21:00:00 TS 30.7523 127.602 main 251 249 __P___________ -1 30.7523 127.602 1 29 1003 6 352
1967201N26134 1967 52 WP MM NOT_NAMED 1967-07-22 00:00:00 TS 31.0000 127.500 main 257 240 __O___________ -1 31.0000 127.500 1 29 1004 6 317
1967201N26134 1967 52 WP MM NOT_NAMED 1967-07-22 03:00:00 TS 31.1526 127.160 main 230 223 __P___________ -1 31.1526 127.160 1 29 1004 7 286
1967201N26134 1967 52 WP MM NOT_NAMED 1967-07-22 06:00:00 TS 31.2000 126.700 main 223 223 __O___________ -1 31.2000 126.700 1 29 1004 8 271
1967201N26134 1967 52 WP MM NOT_NAMED 1967-07-22 09:00:00 TS 31.1702 126.242 main 223 223 __P___________ -1 31.1702 126.242 1 29 1005 8 263
1967201N26134 1967 52 WP MM NOT_NAMED 1967-07-22 12:00:00 TS 31.1000 125.800 main 238 __O___________ -1 31.1000 125.800 1 29 1006 8 260

デジタル台風データ・検索

IBTrACS Databaseについて

本データベースは、米国NOAAが公開する1842年以降の世界の熱帯低気圧のベストトラックデータアーカイブInternational Best Track Archive for Climate Stewardship (IBTrACS)を、ウェブで閲覧しやすい形式に変換したものです。

最終更新日:2021-11-26